createdAt,value
2022-12-18T00:01:17.343Z,6.33
2022-12-18T00:03:45.851Z,6.36
2022-12-18T00:06:14.832Z,6.35
2022-12-18T00:08:44.160Z,6.34
2022-12-18T00:11:14.896Z,6.34
2022-12-18T00:13:42.948Z,6.33
2022-12-18T00:16:12.104Z,6.34
2022-12-18T00:18:40.681Z,6.33
2022-12-18T00:21:09.707Z,6.31
2022-12-18T00:23:38.528Z,6.30
2022-12-18T00:26:10.414Z,6.26
2022-12-18T00:28:38.305Z,6.25
2022-12-18T00:31:07.280Z,6.22
2022-12-18T00:33:35.367Z,6.22
2022-12-18T00:36:03.625Z,6.21
2022-12-18T00:38:31.509Z,6.17
2022-12-18T00:40:59.417Z,6.14
2022-12-18T00:43:27.699Z,6.14
2022-12-18T00:45:55.647Z,6.13
2022-12-18T00:48:23.778Z,6.14
2022-12-18T00:50:51.763Z,6.15
2022-12-18T00:53:19.666Z,6.14
2022-12-18T00:55:47.519Z,6.14
2022-12-18T00:58:15.986Z,6.14
2022-12-18T01:00:45.370Z,6.13
2022-12-18T01:03:14.974Z,6.11
2022-12-18T01:05:43.042Z,6.11
2022-12-18T01:08:10.993Z,6.10
2022-12-18T01:10:38.875Z,6.10
2022-12-18T01:13:06.787Z,6.11
2022-12-18T01:15:34.647Z,6.15
2022-12-18T01:18:06.242Z,6.21
2022-12-18T01:20:34.143Z,6.26
2022-12-18T01:23:02.051Z,6.32
2022-12-18T01:25:29.957Z,6.38
2022-12-18T01:27:58.029Z,6.44
2022-12-18T01:30:25.919Z,6.49
2022-12-18T01:32:53.822Z,6.53
2022-12-18T01:35:23.126Z,6.58
2022-12-18T01:37:51.018Z,6.61
2022-12-18T01:40:19.040Z,6.64
2022-12-18T01:42:46.931Z,6.65
2022-12-18T01:45:26.467Z,6.69
2022-12-18T01:47:55.592Z,6.70
2022-12-18T01:50:26.399Z,6.71
2022-12-18T01:52:55.292Z,6.73
2022-12-18T01:55:24.514Z,6.72
2022-12-18T01:57:52.485Z,6.76
2022-12-18T02:00:22.183Z,6.81
2022-12-18T02:02:50.230Z,6.88
2022-12-18T02:05:19.923Z,6.94
2022-12-18T02:07:54.592Z,7.01
2022-12-18T02:10:25.390Z,7.04
2022-12-18T02:12:57.253Z,7.11
2022-12-18T02:15:27.396Z,7.16
2022-12-18T02:17:57.439Z,7.19
2022-12-18T02:20:28.367Z,7.23
2022-12-18T02:23:06.756Z,7.29
2022-12-18T02:25:45.862Z,7.31
2022-12-18T02:28:15.810Z,7.33
2022-12-18T02:30:43.735Z,7.38
2022-12-18T02:33:11.660Z,7.40
2022-12-18T02:35:39.554Z,7.43
2022-12-18T02:38:07.417Z,7.46
2022-12-18T02:40:35.288Z,7.48
2022-12-18T02:43:05.580Z,7.49
2022-12-18T02:45:34.911Z,7.50
2022-12-18T02:48:02.923Z,7.53
2022-12-18T02:50:33.856Z,7.53
2022-12-18T02:53:07.116Z,7.57
2022-12-18T02:55:39.962Z,7.58
2022-12-18T02:58:10.455Z,7.62
2022-12-18T03:00:41.299Z,7.59
2022-12-18T03:03:10.766Z,7.62
2022-12-18T03:05:40.904Z,7.64
2022-12-18T03:08:10.054Z,7.66
2022-12-18T03:10:40.249Z,7.68
2022-12-18T03:13:10.014Z,7.70
2022-12-18T03:15:39.747Z,7.72
2022-12-18T03:18:10.795Z,7.71
2022-12-18T03:20:38.700Z,7.73
2022-12-18T03:23:09.801Z,7.76
2022-12-18T03:25:38.189Z,7.77
2022-12-18T03:28:06.214Z,7.80
2022-12-18T03:30:34.144Z,7.78
2022-12-18T03:33:05.504Z,7.74
2022-12-18T03:35:34.109Z,7.78
2022-12-18T03:38:02.008Z,7.84
2022-12-18T03:40:32.281Z,7.83
2022-12-18T03:43:01.739Z,7.84
2022-12-18T03:45:32.651Z,7.84
2022-12-18T03:48:06.163Z,7.88
2022-12-18T03:50:39.068Z,7.91
2022-12-18T03:53:12.879Z,7.94
2022-12-18T03:55:40.768Z,7.97
2022-12-18T03:58:08.696Z,7.97
2022-12-18T04:00:36.576Z,8.01
2022-12-18T04:03:05.892Z,8.07
2022-12-18T04:05:33.861Z,8.12
2022-12-18T04:08:02.094Z,8.19
2022-12-18T04:10:30.081Z,8.24
2022-12-18T04:12:58.017Z,8.28
2022-12-18T04:15:26.043Z,8.31
2022-12-18T04:17:53.994Z,8.36
2022-12-18T04:20:23.238Z,8.40
2022-12-18T04:22:51.155Z,8.43
2022-12-18T04:25:19.421Z,8.45
2022-12-18T04:27:47.256Z,8.48
2022-12-18T04:30:15.219Z,8.55
2022-12-18T04:32:46.524Z,8.58
2022-12-18T04:35:17.111Z,8.60
2022-12-18T04:37:46.673Z,8.60
2022-12-18T04:40:15.494Z,8.64
2022-12-18T04:42:43.602Z,8.66
2022-12-18T04:45:11.885Z,8.70
2022-12-18T04:47:39.752Z,8.70
2022-12-18T04:50:08.548Z,8.74
2022-12-18T04:52:36.427Z,8.76
2022-12-18T04:55:06.219Z,8.77
2022-12-18T04:57:34.186Z,8.64
2022-12-18T05:00:02.061Z,8.79
2022-12-18T05:02:29.970Z,8.78
2022-12-18T05:04:57.882Z,8.79
2022-12-18T05:07:25.768Z,8.79
2022-12-18T05:09:53.668Z,8.83
2022-12-18T05:12:25.692Z,8.84
2022-12-18T05:14:53.547Z,8.82
2022-12-18T05:17:21.404Z,8.82
2022-12-18T05:19:49.280Z,8.85
2022-12-18T05:22:17.246Z,8.83
2022-12-18T05:24:45.338Z,8.84
2022-12-18T05:27:13.223Z,8.85
2022-12-18T05:29:42.523Z,8.85
2022-12-18T05:32:10.424Z,8.86
2022-12-18T05:34:38.317Z,8.89
2022-12-18T05:37:06.221Z,8.91
2022-12-18T05:39:34.145Z,8.90
2022-12-18T05:42:02.033Z,8.89
2022-12-18T05:44:29.931Z,8.88
2022-12-18T05:46:59.379Z,8.87
2022-12-18T05:49:27.488Z,8.87
2022-12-18T05:51:55.422Z,8.84
2022-12-18T05:54:23.315Z,8.81
2022-12-18T05:56:51.159Z,8.80
2022-12-18T05:59:19.092Z,8.79
2022-12-18T06:01:47.103Z,8.78
2022-12-18T06:04:16.518Z,8.76
2022-12-18T06:06:44.480Z,8.74
2022-12-18T06:09:12.914Z,8.74
2022-12-18T06:11:40.813Z,8.71
2022-12-18T06:14:08.940Z,8.69
2022-12-18T06:16:36.936Z,8.69
2022-12-18T06:19:06.074Z,8.67
2022-12-18T06:21:35.656Z,8.66
2022-12-18T06:24:04.243Z,8.67
2022-12-18T06:26:32.108Z,8.66
2022-12-18T06:29:00.038Z,8.64
2022-12-18T06:31:28.121Z,8.64
2022-12-18T06:33:57.097Z,8.66
2022-12-18T06:36:25.006Z,8.68
2022-12-18T06:38:54.269Z,8.68
2022-12-18T06:41:22.832Z,8.65
2022-12-18T06:43:50.769Z,8.63
2022-12-18T06:46:18.758Z,8.63
2022-12-18T06:48:49.258Z,8.61
2022-12-18T06:51:19.251Z,8.61
2022-12-18T06:53:47.149Z,8.61
2022-12-18T06:56:16.440Z,8.62
2022-12-18T06:58:44.654Z,8.60
2022-12-18T07:01:13.109Z,8.58
2022-12-18T07:03:42.193Z,8.59
2022-12-18T07:06:15.542Z,8.60
2022-12-18T07:08:43.455Z,8.54
2022-12-18T07:11:11.332Z,8.58
2022-12-18T07:13:40.872Z,8.55
2022-12-18T07:16:15.972Z,8.56
2022-12-18T07:18:45.271Z,8.56
2022-12-18T07:21:14.112Z,8.58
2022-12-18T07:23:42.547Z,8.58
2022-12-18T07:26:11.934Z,8.55
2022-12-18T07:28:41.836Z,8.56
2022-12-18T07:31:10.824Z,8.56
2022-12-18T07:33:40.204Z,8.57
2022-12-18T07:36:09.154Z,8.58
2022-12-18T07:38:37.364Z,8.56
2022-12-18T07:41:05.867Z,8.57
2022-12-18T07:43:34.765Z,8.58
2022-12-18T07:46:04.118Z,8.59
2022-12-18T07:48:32.086Z,8.60
2022-12-18T07:51:00.567Z,8.60
2022-12-18T07:53:28.616Z,8.61
2022-12-18T07:56:25.499Z,8.61
2022-12-18T07:58:49.326Z,8.62
2022-12-18T08:01:18.883Z,8.65
2022-12-18T08:03:47.045Z,8.66
2022-12-18T08:06:16.104Z,8.67
2022-12-18T08:08:44.110Z,8.70
2022-12-18T08:11:12.085Z,8.70
2022-12-18T08:13:40.325Z,8.73
2022-12-18T08:16:10.109Z,8.74
2022-12-18T08:18:43.194Z,8.71
2022-12-18T08:21:11.457Z,8.80
2022-12-18T08:23:42.651Z,8.81
2022-12-18T08:26:11.454Z,8.81
2022-12-18T08:28:39.602Z,8.84
2022-12-18T08:31:07.864Z,8.85
2022-12-18T08:33:35.921Z,8.87
2022-12-18T08:36:06.049Z,8.88
2022-12-18T08:38:33.953Z,8.92
2022-12-18T08:41:02.200Z,8.94
2022-12-18T08:43:47.446Z,8.95
2022-12-18T08:46:18.099Z,8.92
2022-12-18T08:48:46.062Z,8.96
2022-12-18T08:51:15.390Z,8.98
2022-12-18T08:53:44.078Z,9.01
2022-12-18T08:56:12.129Z,9.01
2022-12-18T08:58:40.056Z,9.03
2022-12-18T09:01:09.915Z,9.07
2022-12-18T09:03:38.247Z,9.11
2022-12-18T09:06:06.914Z,9.12
2022-12-18T09:08:37.568Z,9.16
2022-12-18T09:11:05.835Z,9.18
2022-12-18T09:13:33.726Z,9.24
2022-12-18T09:16:01.706Z,9.26
2022-12-18T09:18:29.611Z,9.28
2022-12-18T09:20:57.514Z,9.33
2022-12-18T09:23:26.226Z,9.38
2022-12-18T09:26:00.443Z,9.42
2022-12-18T09:28:28.343Z,9.45
2022-12-18T09:30:56.336Z,9.47
2022-12-18T09:33:24.263Z,9.34
2022-12-18T09:35:52.359Z,9.54
2022-12-18T09:38:20.912Z,9.60
2022-12-18T09:40:49.936Z,9.57
2022-12-18T09:43:20.604Z,9.65
2022-12-18T09:45:50.085Z,9.69
2022-12-18T09:48:20.129Z,9.74
2022-12-18T09:50:48.046Z,9.81
2022-12-18T09:53:17.911Z,9.84
2022-12-18T09:55:47.342Z,9.90
2022-12-18T09:58:21.556Z,9.97
2022-12-18T10:00:49.547Z,9.99
2022-12-18T10:03:17.534Z,10.07
2022-12-18T10:05:49.138Z,10.12
2022-12-18T10:08:19.979Z,10.16
2022-12-18T10:10:49.463Z,10.23
2022-12-18T10:13:24.124Z,10.16
2022-12-18T10:16:03.809Z,10.33
2022-12-18T10:18:39.555Z,10.38
2022-12-18T10:21:11.412Z,10.45
2022-12-18T10:23:46.573Z,10.45
2022-12-18T10:26:16.463Z,10.54
2022-12-18T10:28:45.955Z,10.53
2022-12-18T10:31:17.021Z,10.63
2022-12-18T10:33:45.008Z,10.68
2022-12-18T10:36:12.896Z,10.72
2022-12-18T10:38:41.068Z,10.77
2022-12-18T10:41:26.968Z,10.84
2022-12-18T10:44:15.100Z,10.91
2022-12-18T10:46:43.107Z,10.97
2022-12-18T10:49:21.111Z,11.05
2022-12-18T10:51:49.042Z,11.09
2022-12-18T10:54:17.591Z,11.14
2022-12-18T10:56:45.549Z,11.24
2022-12-18T10:59:16.583Z,11.34
2022-12-18T11:01:49.276Z,11.40
2022-12-18T11:04:19.843Z,11.45
2022-12-18T11:06:58.954Z,11.53
2022-12-18T11:09:27.845Z,11.60
2022-12-18T11:11:57.054Z,11.67
2022-12-18T11:14:27.261Z,11.71
2022-12-18T11:17:24.343Z,11.79
2022-12-18T11:19:43.331Z,11.84
2022-12-18T11:22:20.979Z,11.90
2022-12-18T11:25:29.665Z,11.90
2022-12-18T11:27:42.977Z,12.00
2022-12-18T11:30:22.503Z,12.04
2022-12-18T11:32:50.571Z,12.06
2022-12-18T11:35:20.427Z,12.13
2022-12-18T11:37:50.604Z,12.15
2022-12-18T11:40:19.879Z,12.24
2022-12-18T11:42:50.953Z,12.28
2022-12-18T11:45:32.049Z,12.33
2022-12-18T11:48:02.665Z,12.35
2022-12-18T11:50:33.824Z,12.42
2022-12-18T11:53:05.891Z,12.46
2022-12-18T11:55:39.609Z,12.49
2022-12-18T11:58:12.020Z,12.54
2022-12-18T12:00:46.971Z,12.57
2022-12-18T12:03:29.773Z,12.61
2022-12-18T12:06:03.476Z,12.67
2022-12-18T12:08:37.527Z,12.68
2022-12-18T12:11:08.832Z,12.71
2022-12-18T12:13:45.699Z,12.73
2022-12-18T12:16:19.120Z,12.76
2022-12-18T12:19:04.089Z,12.77
2022-12-18T12:21:37.817Z,12.82
2022-12-18T12:24:11.419Z,12.81
2022-12-18T12:26:44.178Z,12.86
2022-12-18T12:29:21.409Z,12.87
2022-12-18T12:32:00.778Z,12.88
2022-12-18T12:34:29.137Z,12.93
2022-12-18T12:37:05.432Z,12.92
2022-12-18T12:39:35.183Z,12.95
2022-12-18T12:42:20.784Z,12.97
2022-12-18T12:44:55.763Z,12.97
2022-12-18T12:47:27.764Z,13.01
2022-12-18T12:49:56.101Z,13.03
2022-12-18T12:52:29.923Z,13.02
2022-12-18T12:54:58.177Z,13.05
2022-12-18T12:57:29.337Z,13.02
2022-12-18T13:00:00.471Z,13.07
2022-12-18T13:02:32.363Z,13.03
2022-12-18T13:05:03.406Z,13.04
2022-12-18T13:07:34.285Z,13.08
2022-12-18T13:10:25.678Z,13.09
2022-12-18T13:12:58.233Z,13.10
2022-12-18T13:15:32.369Z,13.10
2022-12-18T13:18:18.434Z,13.12
2022-12-18T13:20:53.151Z,13.07
2022-12-18T13:23:44.141Z,13.12
2022-12-18T13:26:32.268Z,13.14
2022-12-18T13:29:00.357Z,13.15
2022-12-18T13:32:01.473Z,13.18
2022-12-18T13:34:32.003Z,13.15
2022-12-18T13:37:33.398Z,13.21
2022-12-18T13:40:01.337Z,13.24
2022-12-18T13:42:58.441Z,13.26
2022-12-18T13:45:41.464Z,13.25
2022-12-18T13:48:26.302Z,13.27
2022-12-18T13:51:06.211Z,13.32
2022-12-18T13:53:38.222Z,13.34
2022-12-18T13:56:06.530Z,13.35
2022-12-18T13:58:35.352Z,13.37
2022-12-18T14:01:05.710Z,13.36
2022-12-18T14:03:33.811Z,13.41
2022-12-18T14:06:05.679Z,13.43
2022-12-18T14:08:40.753Z,13.54
2022-12-18T14:11:09.140Z,13.65
2022-12-18T14:13:41.239Z,13.79
2022-12-18T14:16:09.811Z,13.98
2022-12-18T14:18:45.793Z,14.12
2022-12-18T14:21:22.366Z,14.24
2022-12-18T14:23:50.269Z,14.38
2022-12-18T14:26:28.226Z,14.50
2022-12-18T14:28:56.433Z,14.62
2022-12-18T14:31:25.266Z,14.73
2022-12-18T14:33:53.676Z,14.83
2022-12-18T14:36:23.462Z,14.89
2022-12-18T14:38:52.385Z,14.93
2022-12-18T14:41:20.877Z,15.03
2022-12-18T14:43:49.859Z,15.05
2022-12-18T14:46:32.208Z,15.11
2022-12-18T14:49:00.208Z,15.13
2022-12-18T14:51:29.857Z,15.17
2022-12-18T14:53:58.699Z,15.18
2022-12-18T14:56:27.436Z,15.21
2022-12-18T14:58:56.884Z,15.26
2022-12-18T15:01:27.673Z,15.28
2022-12-18T15:03:55.876Z,15.31
2022-12-18T15:06:31.237Z,15.29
2022-12-18T15:08:59.584Z,15.29
2022-12-18T15:11:28.926Z,15.24
2022-12-18T15:13:56.945Z,15.28
2022-12-18T15:16:24.983Z,15.24
2022-12-18T15:18:52.954Z,15.26
2022-12-18T15:21:21.400Z,15.27
2022-12-18T15:23:51.992Z,15.22
2022-12-18T15:26:20.977Z,15.26
2022-12-18T15:28:49.797Z,15.29
2022-12-18T15:31:32.906Z,15.31
2022-12-18T15:34:12.032Z,15.35
2022-12-18T15:36:39.990Z,15.37
2022-12-18T15:39:12.168Z,15.40
2022-12-18T15:41:40.133Z,15.41
2022-12-18T15:44:22.956Z,15.43
2022-12-18T15:46:50.950Z,15.48
2022-12-18T15:49:18.917Z,15.49
2022-12-18T15:51:54.329Z,15.50
2022-12-18T15:54:43.619Z,15.48
2022-12-18T15:57:25.999Z,15.52
2022-12-18T15:59:55.132Z,15.50
2022-12-18T16:02:23.926Z,15.53
2022-12-18T16:04:52.303Z,15.54
2022-12-18T16:07:23.024Z,15.56
2022-12-18T16:09:55.478Z,15.58
2022-12-18T16:12:25.184Z,15.62
2022-12-18T16:14:53.102Z,15.65
2022-12-18T16:17:23.590Z,15.67
2022-12-18T16:19:51.648Z,15.69
2022-12-18T16:22:23.041Z,15.70
2022-12-18T16:24:51.190Z,15.69
2022-12-18T16:27:20.558Z,15.69
2022-12-18T16:29:48.444Z,15.69
2022-12-18T16:32:17.459Z,15.67
2022-12-18T16:34:45.524Z,15.74
2022-12-18T16:37:14.460Z,15.73
2022-12-18T16:39:42.396Z,15.77
2022-12-18T16:42:15.369Z,15.77
2022-12-18T16:44:45.068Z,15.78
2022-12-18T16:47:15.044Z,15.81
2022-12-18T16:49:43.484Z,15.82
2022-12-18T16:52:11.452Z,15.83
2022-12-18T16:54:39.292Z,15.89
2022-12-18T16:57:07.202Z,15.90
2022-12-18T16:59:38.152Z,15.93
2022-12-18T17:02:07.967Z,15.92
2022-12-18T17:04:36.103Z,15.96
2022-12-18T17:07:04.678Z,15.97
2022-12-18T17:09:32.570Z,16.02
2022-12-18T17:12:03.640Z,16.03
2022-12-18T17:14:32.811Z,16.05
2022-12-18T17:17:21.012Z,16.06
2022-12-18T17:19:50.366Z,16.09
2022-12-18T17:22:18.297Z,16.11
2022-12-18T17:24:46.195Z,16.14
2022-12-18T17:27:15.370Z,16.16
2022-12-18T17:29:47.779Z,16.15
2022-12-18T17:32:16.235Z,16.17
2022-12-18T17:34:44.154Z,16.19
2022-12-18T17:37:13.526Z,16.22
2022-12-18T17:39:42.055Z,16.24
2022-12-18T17:42:15.200Z,16.21
2022-12-18T17:44:44.081Z,16.23
2022-12-18T17:47:13.156Z,16.25
2022-12-18T17:49:41.292Z,16.28
2022-12-18T17:52:09.193Z,16.29
2022-12-18T17:54:41.371Z,16.31
2022-12-18T17:57:09.379Z,16.33
2022-12-18T17:59:37.395Z,16.36
2022-12-18T18:02:05.431Z,16.36
2022-12-18T18:04:33.644Z,16.35
2022-12-18T18:07:01.751Z,16.37
2022-12-18T18:09:29.735Z,16.40
2022-12-18T18:12:16.632Z,16.42
2022-12-18T18:14:47.844Z,16.39
2022-12-18T18:17:16.047Z,16.44
2022-12-18T18:19:48.021Z,16.46
2022-12-18T18:22:17.788Z,16.46
2022-12-18T18:24:46.931Z,16.47
2022-12-18T18:27:16.363Z,16.51
2022-12-18T18:29:44.737Z,16.53
2022-12-18T18:32:12.684Z,16.55
2022-12-18T18:34:43.135Z,16.59
2022-12-18T18:37:11.038Z,16.60
2022-12-18T18:39:39.222Z,16.61
2022-12-18T18:42:07.230Z,16.66
2022-12-18T18:44:36.551Z,16.68
2022-12-18T18:47:06.943Z,16.68
2022-12-18T18:49:37.582Z,16.71
2022-12-18T18:52:07.212Z,16.72
2022-12-18T18:54:35.302Z,16.77
2022-12-18T18:57:19.848Z,16.77
2022-12-18T18:59:50.167Z,16.79
2022-12-18T19:02:18.529Z,16.77
2022-12-18T19:04:47.004Z,16.82
2022-12-18T19:07:16.443Z,16.81
2022-12-18T19:09:57.325Z,16.82
2022-12-18T19:12:44.600Z,16.83
2022-12-18T19:15:13.819Z,16.82
2022-12-18T19:17:42.300Z,16.85
2022-12-18T19:20:15.207Z,16.84
2022-12-18T19:22:43.394Z,16.88
2022-12-18T19:25:13.981Z,16.90
2022-12-18T19:27:41.929Z,16.94
2022-12-18T19:30:11.556Z,16.96
2022-12-18T19:32:40.927Z,16.98
2022-12-18T19:35:10.689Z,16.98
2022-12-18T19:37:38.617Z,17.05
2022-12-18T19:40:12.107Z,17.06
2022-12-18T19:42:41.908Z,17.08
2022-12-18T19:45:10.743Z,17.07
2022-12-18T19:47:39.973Z,17.09
2022-12-18T19:50:09.417Z,17.13
2022-12-18T19:52:37.600Z,17.13
2022-12-18T19:55:06.171Z,17.16
2022-12-18T19:57:34.848Z,17.20
2022-12-18T20:00:02.776Z,17.22
2022-12-18T20:02:31.256Z,17.24
2022-12-18T20:05:00.793Z,17.25
2022-12-18T20:07:28.763Z,17.28
2022-12-18T20:10:02.615Z,17.28
2022-12-18T20:12:33.626Z,17.31
2022-12-18T20:15:01.489Z,17.36
2022-12-18T20:17:29.357Z,17.38
2022-12-18T20:19:57.604Z,17.44
2022-12-18T20:22:27.233Z,17.47
2022-12-18T20:24:55.151Z,17.51
2022-12-18T20:27:23.127Z,17.51
2022-12-18T20:29:52.031Z,17.54
2022-12-18T20:32:20.177Z,17.58
2022-12-18T20:34:48.368Z,17.58
2022-12-18T20:37:16.664Z,17.58
2022-12-18T20:39:48.918Z,17.62
2022-12-18T20:42:17.379Z,17.61
2022-12-18T20:44:45.912Z,17.64
2022-12-18T20:47:13.920Z,17.64
2022-12-18T20:49:44.853Z,17.67
2022-12-18T20:52:13.879Z,17.65
2022-12-18T20:54:41.793Z,17.63
2022-12-18T20:57:11.102Z,17.62
2022-12-18T20:59:42.078Z,17.64
2022-12-18T21:02:14.490Z,17.65
2022-12-18T21:04:42.570Z,17.65
2022-12-18T21:07:10.461Z,17.63
2022-12-18T21:09:38.697Z,17.66
2022-12-18T21:12:24.844Z,17.64
2022-12-18T21:14:54.096Z,17.62
2022-12-18T21:17:21.964Z,17.60
2022-12-18T21:19:49.844Z,17.58
2022-12-18T21:22:18.078Z,17.58
2022-12-18T21:24:46.236Z,17.47
2022-12-18T21:27:17.682Z,17.62
2022-12-18T21:29:49.882Z,17.58
2022-12-18T21:32:21.090Z,17.57
2022-12-18T21:34:52.102Z,17.56
2022-12-18T21:37:20.030Z,17.57
2022-12-18T21:39:48.072Z,17.55
2022-12-18T21:42:33.535Z,17.55
2022-12-18T21:45:01.420Z,17.56
2022-12-18T21:47:30.688Z,17.55
2022-12-18T21:49:58.647Z,17.58
2022-12-18T21:52:31.911Z,17.58
2022-12-18T21:55:06.640Z,17.59
2022-12-18T21:57:36.167Z,17.58
2022-12-18T22:00:05.143Z,17.58
2022-12-18T22:02:34.478Z,17.59
2022-12-18T22:05:02.515Z,17.58
2022-12-18T22:07:30.640Z,17.60
2022-12-18T22:09:58.683Z,17.60
2022-12-18T22:12:43.192Z,17.58
2022-12-18T22:15:12.003Z,17.60
2022-12-18T22:17:43.669Z,17.62
2022-12-18T22:20:14.134Z,17.61
2022-12-18T22:22:42.034Z,17.61
2022-12-18T22:25:10.858Z,17.63
2022-12-18T22:27:38.828Z,17.62
2022-12-18T22:30:06.934Z,17.65
2022-12-18T22:32:35.134Z,17.69
2022-12-18T22:35:08.325Z,17.70
2022-12-18T22:37:38.478Z,17.72
2022-12-18T22:40:07.626Z,17.74
2022-12-18T22:42:36.621Z,17.73
2022-12-18T22:45:04.861Z,17.73
2022-12-18T22:47:32.760Z,17.74
2022-12-18T22:50:00.632Z,17.74
2022-12-18T22:52:29.917Z,17.76
2022-12-18T22:54:57.798Z,17.73
2022-12-18T22:57:25.799Z,17.74
2022-12-18T22:59:53.682Z,17.72
2022-12-18T23:02:21.684Z,17.69
2022-12-18T23:04:49.764Z,17.71
2022-12-18T23:07:17.772Z,17.68
2022-12-18T23:09:47.091Z,17.68
2022-12-18T23:12:21.322Z,17.69
2022-12-18T23:14:49.394Z,17.69
2022-12-18T23:17:17.247Z,17.67
2022-12-18T23:19:48.983Z,17.66
2022-12-18T23:22:17.290Z,17.66
2022-12-18T23:24:46.536Z,17.68
2022-12-18T23:27:14.408Z,17.68
2022-12-18T23:29:42.289Z,17.69
2022-12-18T23:32:11.419Z,17.70
2022-12-18T23:34:39.349Z,17.74
2022-12-18T23:37:07.254Z,17.71
2022-12-18T23:39:35.134Z,17.71
2022-12-18T23:42:04.502Z,17.71
2022-12-18T23:44:32.357Z,17.71
2022-12-18T23:47:00.224Z,17.73
2022-12-18T23:49:28.218Z,17.76
2022-12-18T23:51:56.358Z,17.73
2022-12-18T23:54:32.670Z,17.73
2022-12-18T23:57:01.423Z,17.72
2022-12-18T23:59:30.765Z,17.73
